Stations météo

réclame
Mon MeteoGroup
St.Catherine`s Point, Grande-Bretagne (3866): Température de l'air & dewpoint: 05.12.2017 02:00:00 - 11.12.2017 02:00:00 (GMT)St.Catherine`s Point, Grande-Bretagne (3866): Vitesse du vent & gusts: 05.12.2017 02:00:00 - 11.12.2017 02:00:00 (GMT)St.Catherine`s Point, Grande-Bretagne (3866): Direction du vent: 05.12.2017 02:00:00 - 11.12.2017 02:00:00 (GMT)St.Catherine`s Point, Grande-Bretagne (3866): reduced air pressure: 05.12.2017 02:00:00 - 11.12.2017 02:00:00 (GMT)St.Catherine`s Point, Grande-Bretagne (3866): Quantités de précipitations: 05.12.2017 02:00:00 - 11.12.2017 02:00:00 (GMT)
Date & Time tt [°C] td [°C] ff [km/h] ff [knt] fx [km/h] fx [knt] dd ppp [hPa] rr [mm]
11.12.2017 02:00:00 - - - - - - - - -
11.12.2017 01:00:00 - - - - - - - - -
11.12.2017 00:00:00 - - - - - - - - -
10.12.2017 23:00:00 - - - - - - - - -
10.12.2017 22:00:00 - - - - - - - - -
10.12.2017 21:00:00 - - - - - - - - -
10.12.2017 20:00:00 - - - - - - - - -
10.12.2017 19:00:00 - - - - - - - - -
10.12.2017 18:00:00 - - - - - - - - -
10.12.2017 17:00:00 4,4 2,2 16 9 - - N 978,4 0,2
10.12.2017 16:00:00 4,5 2,9 16 9 - - NW 978,6 0,4
10.12.2017 15:00:00 5,2 3,5 22 12 50 27 WNW 977,9 0,0
10.12.2017 14:00:00 5,7 3,8 29 16 94 51 WNW 977,1 0,0
10.12.2017 13:00:00 10,2 4,9 67 36 109 59 W 975,4 0,0
10.12.2017 12:00:00 9,9 5,4 91 49 115 62 W 974,8 0,0
10.12.2017 11:00:00 9,9 5,7 81 44 107 58 W 974,9 0,0
10.12.2017 10:00:00 9,9 4,2 81 44 107 58 W 975,1 0,0
10.12.2017 09:00:00 9,5 6,6 68 37 96 52 W 975,7 0,4
10.12.2017 08:00:00 9,6 7,8 68 37 96 52 W 975,6 0,8
10.12.2017 07:00:00 10,0 8,6 63 34 80 43 W 976,3 2,0
10.12.2017 06:00:00 7,5 7,1 31 17 54 29 SE 980,1 5,0
10.12.2017 05:00:00 6,9 6,1 42 23 55 30 SE 984,0 3,2
10.12.2017 04:00:00 6,9 6,1 31 17 48 26 SE 989,1 1,6
10.12.2017 03:00:00 6,7 5,6 29 16 - - SE 992,9 0,6
10.12.2017 02:00:00 6,7 4,8 22 12 - - SSE 996,4 0,2
10.12.2017 01:00:00 6,9 4,7 24 13 - - S 999,4 1,2
10.12.2017 00:00:00 6,4 5,0 16 9 - - S 1002,3 1,2
09.12.2017 23:00:00 5,6 4,1 15 8 - - ESE 1004,2 1,2
09.12.2017 22:00:00 4,8 0,3 13 7 - - ENE 1006,4 0,0
09.12.2017 21:00:00 3,9 -0,8 8 4 - - ENE 1007,8 0,0
09.12.2017 20:00:00 4,2 -1,3 13 7 - - NNE 1009,4 0,0
09.12.2017 19:00:00 5,1 -0,3 5 3 - - NNW 1010,8 0,0
09.12.2017 18:00:00 4,8 -0,9 8 4 - - N 1011,7 0,0
09.12.2017 17:00:00 5,6 -1,0 13 7 - - W 1012,7 0,0
09.12.2017 16:00:00 5,4 -2,0 18 10 - - W 1013,5 0,0
09.12.2017 15:00:00 5,2 -0,9 11 6 - - WNW 1014,4 0,0
09.12.2017 14:00:00 5,0 -0,3 15 8 - - WNW 1015,4 0,0
09.12.2017 13:00:00 5,4 0,0 18 10 - - W 1016,8 0,0
09.12.2017 12:00:00 5,3 -1,2 16 9 - - W 1017,7 0,0
09.12.2017 11:00:00 4,7 0,2 15 8 - - NW 1018,7 0,0
09.12.2017 10:00:00 3,4 -0,4 13 7 - - WNW 1019,3 0,0
09.12.2017 09:00:00 2,8 -0,6 13 7 - - NW 1019,7 0,0
09.12.2017 08:00:00 2,2 -1,1 13 7 - - NW 1019,9 0,0
09.12.2017 07:00:00 2,4 -1,3 11 6 - - NW 1020,2 0,0
09.12.2017 06:00:00 1,8 -1,3 11 6 - - NW 1020,3 0,0
09.12.2017 05:00:00 2,0 -1,2 15 8 - - NNW 1020,4 0,0
09.12.2017 04:00:00 2,1 -1,0 18 10 - - NW 1020,5 0,0
09.12.2017 03:00:00 1,9 -1,3 16 9 - - NNW 1020,7 0,0
09.12.2017 02:00:00 2,0 -1,2 16 9 - - NW 1020,7 0,0
09.12.2017 01:00:00 2,2 -0,9 16 9 - - WNW 1020,6 0,0
09.12.2017 00:00:00 2,7 -0,9 15 8 - - NW 1020,9 0,0
08.12.2017 23:00:00 3,3 -0,1 22 12 - - NW 1020,4 0,0
08.12.2017 22:00:00 3,8 0,2 24 13 - - WNW 1020,4 0,0
08.12.2017 21:00:00 4,0 -0,9 28 15 48 26 WNW 1020,8 0,0
08.12.2017 20:00:00 3,9 -1,6 24 13 - - NW 1020,5 0,0
08.12.2017 19:00:00 4,4 -1,1 21 11 46 25 WNW 1020,4 0,0
08.12.2017 18:00:00 3,9 -0,7 24 13 - - NW 1020,1 0,0
08.12.2017 17:00:00 3,5 -2,0 22 12 - - NW 1019,8 0,0
08.12.2017 16:00:00 4,6 -1,1 29 16 54 29 WNW 1019,3 0,0
08.12.2017 15:00:00 5,4 -0,9 29 16 52 28 WNW 1018,8 0,0
08.12.2017 14:00:00 5,4 -1,1 31 17 50 27 WNW 1018,7 0,0
08.12.2017 13:00:00 5,4 -1,4 26 14 48 26 WNW 1018,6 0,0
08.12.2017 12:00:00 5,3 0,4 26 14 - - WNW 1018,7 0,0
08.12.2017 11:00:00 3,3 0,5 21 11 - - WNW 1018,8 0,0
08.12.2017 10:00:00 4,5 0,8 21 11 - - WNW 1018,6 0,0
08.12.2017 09:00:00 4,2 0,4 24 13 52 28 WNW 1017,6 0,0
08.12.2017 08:00:00 5,0 0,5 39 21 61 33 WNW 1016,1 0,0
08.12.2017 07:00:00 5,4 0,5 41 22 65 35 WNW 1015,2 0,0
08.12.2017 06:00:00 5,5 0,4 42 23 65 35 W 1015,1 0,0
08.12.2017 05:00:00 5,8 0,1 41 22 59 32 W 1014,8 0,0
08.12.2017 04:00:00 5,8 0,2 35 19 63 34 WNW 1014,9 0,0
08.12.2017 03:00:00 6,0 1,1 39 21 59 32 W 1015,0 0,0
08.12.2017 02:00:00 6,3 1,7 41 22 55 30 W 1014,9 0,0
08.12.2017 01:00:00 7,2 1,5 37 20 50 27 W 1014,8 0,0
08.12.2017 00:00:00 7,1 2,4 31 17 - - WNW 1015,0 0,0
07.12.2017 23:00:00 7,0 1,2 26 14 50 27 WNW 1014,8 0,0
07.12.2017 22:00:00 7,5 1,8 34 18 52 28 WNW 1014,9 0,0
07.12.2017 21:00:00 7,8 2,5 31 17 50 27 WNW 1014,8 0,0
07.12.2017 20:00:00 7,9 2,3 34 18 50 27 WNW 1014,4 0,0
07.12.2017 19:00:00 8,2 2,5 35 19 54 29 WNW 1014,2 0,0
07.12.2017 18:00:00 8,5 3,4 31 17 52 28 WNW 1013,6 0,0
07.12.2017 17:00:00 8,8 4,0 35 19 48 26 WNW 1012,4 0,0
07.12.2017 16:00:00 8,4 3,6 22 12 - - WNW 1011,3 0,0
07.12.2017 15:00:00 8,6 3,6 18 10 - - NW 1009,2 0,0
07.12.2017 14:00:00 9,8 6,8 28 15 52 28 NW 1008,5 0,0
07.12.2017 13:00:00 11,6 11,2 34 18 52 28 W 1007,2 0,0
07.12.2017 12:00:00 11,8 11,7 37 20 55 30 W 1007,0 0,4
07.12.2017 11:00:00 12,1 12,0 39 21 55 30 WSW 1007,6 2,0
07.12.2017 10:00:00 11,6 11,3 41 22 61 33 SW 1008,2 0,8
07.12.2017 09:00:00 11,1 10,5 35 19 63 34 SW 1008,9 0,0
07.12.2017 08:00:00 11,2 10,4 44 24 63 34 SW 1009,8 0,0
07.12.2017 07:00:00 10,9 10,2 35 19 61 33 SW 1010,6 0,2
07.12.2017 06:00:00 11,0 9,6 42 23 63 34 SW 1011,5 0,0
07.12.2017 05:00:00 10,9 9,4 37 20 61 33 SW 1012,6 0,0
07.12.2017 04:00:00 10,8 9,2 39 21 61 33 SW 1013,9 0,0
07.12.2017 03:00:00 10,6 8,9 39 21 65 35 SW 1015,6 0,0
07.12.2017 02:00:00 10,2 8,9 41 22 67 36 SW 1016,6 0,2
07.12.2017 01:00:00 9,9 8,7 46 25 65 35 SW 1017,8 0,2
07.12.2017 00:00:00 10,1 8,2 41 22 65 35 SW 1019,4 0,0
06.12.2017 23:00:00 10,3 7,6 44 24 61 33 SW 1020,3 0,0
06.12.2017 22:00:00 10,6 7,5 41 22 61 33 SW 1021,5 0,0
06.12.2017 21:00:00 10,2 7,3 34 18 50 27 SW 1022,5 0,0
06.12.2017 20:00:00 9,8 6,9 31 17 48 26 SW 1023,3 0,0
06.12.2017 19:00:00 9,6 6,3 28 15 48 26 SW 1023,9 0,0
06.12.2017 18:00:00 9,9 5,6 26 14 48 26 SSW 1024,7 0,0
06.12.2017 17:00:00 10,1 6,2 26 14 50 27 SSW 1025,2 0,0
06.12.2017 16:00:00 10,6 6,6 37 20 50 27 SW 1026,1 0,0
06.12.2017 15:00:00 10,7 7,4 31 17 48 26 SW 1026,3 0,0
06.12.2017 14:00:00 11,0 7,3 35 19 50 27 WSW 1027,4 0,0
06.12.2017 13:00:00 10,9 6,5 35 19 48 26 WSW 1028,3 0,0
06.12.2017 12:00:00 11,1 6,3 28 15 - - WSW 1029,0 0,0
06.12.2017 11:00:00 11,1 7,1 29 16 - - WSW 1029,8 0,0
06.12.2017 10:00:00 11,2 6,3 31 17 - - WSW 1030,2 0,0
06.12.2017 09:00:00 11,2 6,8 28 15 - - WSW 1030,4 0,0
06.12.2017 08:00:00 11,0 7,1 22 12 - - WSW 1030,7 0,0
06.12.2017 07:00:00 10,9 6,8 18 10 - - WSW 1030,8 0,0
06.12.2017 06:00:00 10,9 6,1 21 11 - - WSW 1031,4 0,0
06.12.2017 05:00:00 10,9 6,2 26 14 - - WSW 1031,7 0,0
06.12.2017 04:00:00 10,9 5,1 24 13 - - WSW 1032,1 0,0
06.12.2017 03:00:00 10,7 6,6 18 10 - - WSW 1032,8 0,0
06.12.2017 02:00:00 10,0 6,1 13 7 - - WSW 1033,3 0,0
06.12.2017 01:00:00 9,2 5,0 5 3 - - W 1034,0 0,0
06.12.2017 00:00:00 9,5 4,2 16 9 - - W 1034,5 0,0
05.12.2017 23:00:00 9,0 5,0 9 5 - - WNW 1034,6 0,0
05.12.2017 22:00:00 9,3 4,3 8 4 - - WNW 1034,8 0,0
05.12.2017 21:00:00 9,2 4,3 9 5 - - WNW 1035,0 0,0
05.12.2017 20:00:00 9,4 4,9 11 6 - - WNW 1035,2 0,0
05.12.2017 19:00:00 9,3 4,2 18 10 - - NW 1035,3 0,0
05.12.2017 18:00:00 8,9 3,7 18 10 - - NW 1035,4 0,0
05.12.2017 17:00:00 9,6 4,0 28 15 - - W 1035,4 0,0
05.12.2017 16:00:00 9,6 5,1 24 13 - - W 1035,6 0,0
05.12.2017 15:00:00 9,2 5,0 16 9 - - W 1035,6 0,0
05.12.2017 14:00:00 9,0 4,7 16 9 - - W 1035,8 0,0
05.12.2017 13:00:00 8,9 5,6 21 11 - - W 1036,5 0,0
05.12.2017 12:00:00 8,8 3,9 15 8 - - WNW 1036,9 0,0
05.12.2017 11:00:00 8,8 3,4 24 13 - - WNW 1037,4 0,0
05.12.2017 10:00:00 8,6 3,9 11 6 - - WNW 1037,2 0,0
05.12.2017 09:00:00 8,4 3,2 8 4 - - NW 1037,3 0,0
05.12.2017 08:00:00 8,2 2,9 11 6 - - N 1037,2 0,0
05.12.2017 07:00:00 8,3 3,3 11 6 - - NW 1037,0 0,0
05.12.2017 06:00:00 8,4 3,2 13 7 - - NW 1036,6 0,0
05.12.2017 05:00:00 8,5 3,4 9 5 - - NW 1036,5 0,0
05.12.2017 04:00:00 8,5 4,7 11 6 - - NW 1036,5 0,0
05.12.2017 03:00:00 8,5 4,6 9 5 - - NW 1036,6 0,0
05.12.2017 02:00:00 8,6 5,0 9 5 - - NW 1036,6 0,0

tt = Température de l'air
td = dewpoint
ff = Vitesse du vent
fx = gusts
dd = Direction du vent
ppp = reduced air pressure
rr = Quantités de précipitations

stations d'obs. à proximité